IBE3396 LEMD-ENBR
Flight info
| Callsign | IBE3396 |
|---|---|
| Flight time | 2h 56m |
| Altitude | 34000 |
| Route | RBO N867 DGO/N0437F380 N867 BLV P87 BELEN DCT DIDIG UP87 TERPO UN867 AVANT/N0436F390 L980 MID UM185 DIGSU P5 BUZDE DCT ALOTI DCT ALUVA |
| Aircraft | A20N/M-SDE2E3FGHIRWXY/LB1 |
Departure
| Time | 2026-05-04 08:37 |
|---|---|
| Airport | Adolfo Suárez Madrid–Barajas Airport (LEMD) |
Arrival
| Time | 2026-05-04 11:33 |
|---|---|
| Airport | Bergen Airport, Flesland (ENBR) |
| Time | Latitude | Longitude | Altitude | Speed | Heading |
|---|---|---|---|---|---|
| 2026-05-04 08:19 | 40.48800 | -3.58994 | 1980 ft | 0 kts | 270° |
| 2026-05-04 08:29 | 40.48800 | -3.58991 | 1980 ft | 2 kts | 271° |
| 2026-05-04 08:29 | 40.48799 | -3.58971 | 1981 ft | 2 kts | 282° |
| 2026-05-04 08:29 | 40.48795 | -3.58952 | 1980 ft | 2 kts | 292° |
| 2026-05-04 08:31 | 40.48737 | -3.58884 | 1983 ft | 0 kts | 347° |
| 2026-05-04 08:33 | 40.49240 | -3.58815 | 1982 ft | 11 kts | 87° |
| 2026-05-04 08:33 | 40.49242 | -3.58697 | 1982 ft | 14 kts | 90° |
| 2026-05-04 08:35 | 40.49408 | -3.57466 | 1984 ft | 26 kts | 2° |
| 2026-05-04 08:35 | 40.49639 | -3.57467 | 1980 ft | 55 kts | 359° |
| 2026-05-04 08:35 | 40.50249 | -3.57468 | 1980 ft | 118 kts | 359° |
| 2026-05-04 08:35 | 40.51236 | -3.57475 | 1982 ft | 164 kts | 359° |
| 2026-05-04 08:37 | 40.58028 | -3.55993 | 4893 ft | 200 kts | 10° |
| 2026-05-04 08:37 | 40.59461 | -3.55625 | 5403 ft | 220 kts | 7° |
| 2026-05-04 08:37 | 40.61039 | -3.55205 | 6016 ft | 243 kts | 10° |
| 2026-05-04 08:38 | 40.62712 | -3.54643 | 6876 ft | 251 kts | 12° |
| 2026-05-04 08:38 | 40.64437 | -3.54198 | 7776 ft | 255 kts | 1° |
| 2026-05-04 08:38 | 40.66199 | -3.54055 | 8709 ft | 260 kts | 360° |
| 2026-05-04 08:40 | 40.76364 | -3.42168 | 13156 ft | 367 kts | 57° |
| 2026-05-04 08:40 | 40.77798 | -3.39328 | 13916 ft | 374 kts | 56° |
| 2026-05-04 08:40 | 40.79272 | -3.36463 | 14657 ft | 380 kts | 56° |
| 2026-05-04 08:41 | 40.80760 | -3.33591 | 15381 ft | 387 kts | 56° |
| 2026-05-04 08:41 | 40.82291 | -3.30639 | 16102 ft | 393 kts | 56° |
| 2026-05-04 08:41 | 40.83875 | -3.27661 | 16820 ft | 399 kts | 51° |
| 2026-05-04 08:41 | 40.85937 | -3.25176 | 17514 ft | 404 kts | 32° |
| 2026-05-04 08:42 | 40.88489 | -3.23596 | 18188 ft | 406 kts | 13° |
| 2026-05-04 08:42 | 40.91260 | -3.22845 | 18817 ft | 408 kts | 5° |
| 2026-05-04 08:42 | 40.94104 | -3.22372 | 19447 ft | 413 kts | 3° |
| 2026-05-04 08:42 | 40.96971 | -3.21905 | 20065 ft | 418 kts | 4° |
| 2026-05-04 08:43 | 40.99878 | -3.21367 | 20652 ft | 424 kts | 5° |
| 2026-05-04 08:43 | 41.02812 | -3.20763 | 21265 ft | 430 kts | 5° |
| 2026-05-04 08:43 | 41.05748 | -3.20123 | 21813 ft | 436 kts | 6° |
| 2026-05-04 08:43 | 41.08755 | -3.19451 | 22447 ft | 440 kts | 6° |
| 2026-05-04 08:44 | 41.11787 | -3.18765 | 23009 ft | 445 kts | 6° |
| 2026-05-04 08:44 | 41.14865 | -3.18070 | 23555 ft | 451 kts | 6° |
| 2026-05-04 08:46 | 41.37171 | -3.13030 | 26989 ft | 477 kts | 6° |
| 2026-05-04 08:46 | 41.40452 | -3.12286 | 27446 ft | 480 kts | 6° |
| 2026-05-04 08:46 | 41.43772 | -3.11532 | 27895 ft | 484 kts | 6° |
| 2026-05-04 08:46 | 41.47100 | -3.10777 | 28328 ft | 487 kts | 6° |
| 2026-05-04 08:47 | 41.50449 | -3.10016 | 28744 ft | 490 kts | 6° |
| 2026-05-04 08:47 | 41.53821 | -3.09248 | 29135 ft | 493 kts | 6° |
| 2026-05-04 08:47 | 41.57221 | -3.08473 | 29527 ft | 496 kts | 6° |
| 2026-05-04 08:47 | 41.60548 | -3.07714 | 29898 ft | 499 kts | 6° |
| 2026-05-04 08:48 | 41.64026 | -3.06920 | 30254 ft | 502 kts | 6° |
| 2026-05-04 08:48 | 41.67474 | -3.06132 | 30639 ft | 504 kts | 6° |
| 2026-05-04 08:48 | 41.70938 | -3.05338 | 30991 ft | 506 kts | 6° |
| 2026-05-04 08:48 | 41.74412 | -3.04542 | 31378 ft | 507 kts | 6° |
| 2026-05-04 08:49 | 41.77895 | -3.03741 | 31865 ft | 505 kts | 6° |
| 2026-05-04 08:50 | 41.98492 | -2.98987 | 33984 ft | 497 kts | 6° |
| 2026-05-04 08:50 | 42.01898 | -2.98199 | 33979 ft | 497 kts | 6° |
| 2026-05-04 08:51 | 42.08705 | -2.96621 | 33977 ft | 496 kts | 6° |
| 2026-05-04 08:51 | 42.15505 | -2.95042 | 33980 ft | 495 kts | 6° |
| 2026-05-04 08:52 | 42.22312 | -2.93455 | 33974 ft | 496 kts | 6° |
| 2026-05-04 08:52 | 42.29106 | -2.91869 | 33969 ft | 494 kts | 6° |
| 2026-05-04 08:54 | 42.56218 | -2.88662 | 35620 ft | 487 kts | 353° |
| 2026-05-04 08:55 | 42.59611 | -2.88826 | 35943 ft | 486 kts | 353° |
| 2026-05-04 08:55 | 42.62988 | -2.88993 | 36258 ft | 485 kts | 353° |
| 2026-05-04 08:55 | 42.66366 | -2.89164 | 36572 ft | 484 kts | 353° |
| 2026-05-04 08:55 | 42.69741 | -2.89339 | 36886 ft | 484 kts | 353° |
| 2026-05-04 08:57 | 42.93115 | -2.90563 | 38022 ft | 478 kts | 353° |
| 2026-05-04 09:01 | 43.39543 | -2.89827 | 38009 ft | 483 kts | 9° |
| 2026-05-04 09:01 | 43.46133 | -2.87924 | 38019 ft | 484 kts | 9° |
| 2026-05-04 09:02 | 43.52716 | -2.86000 | 38014 ft | 483 kts | 9° |
| 2026-05-04 09:02 | 43.59295 | -2.84061 | 38012 ft | 483 kts | 9° |
| 2026-05-04 09:03 | 43.65860 | -2.82120 | 38010 ft | 482 kts | 9° |
| 2026-05-04 09:03 | 43.72374 | -2.80132 | 38020 ft | 482 kts | 11° |
| 2026-05-04 09:04 | 43.78900 | -2.77979 | 38013 ft | 482 kts | 11° |
| 2026-05-04 09:04 | 43.85446 | -2.75824 | 38009 ft | 482 kts | 11° |
| 2026-05-04 09:05 | 43.91986 | -2.73747 | 38017 ft | 481 kts | 7° |
| 2026-05-04 09:05 | 43.98555 | -2.72312 | 38011 ft | 481 kts | 7° |
| 2026-05-04 09:06 | 44.05164 | -2.70841 | 38009 ft | 481 kts | 7° |
| 2026-05-04 09:08 | 44.30519 | -2.65203 | 38004 ft | 482 kts | 7° |
| 2026-05-04 09:08 | 44.37147 | -2.63723 | 38002 ft | 482 kts | 7° |
| 2026-05-04 09:09 | 44.43776 | -2.62239 | 38007 ft | 483 kts | 7° |
| 2026-05-04 09:09 | 44.50418 | -2.60748 | 38003 ft | 483 kts | 7° |
| 2026-05-04 09:10 | 44.57067 | -2.59253 | 38011 ft | 484 kts | 7° |
| 2026-05-04 09:10 | 44.63659 | -2.57767 | 38003 ft | 481 kts | 7° |
| 2026-05-04 09:11 | 44.70271 | -2.56273 | 38002 ft | 481 kts | 7° |
| 2026-05-04 09:11 | 44.76779 | -2.54799 | 37997 ft | 481 kts | 7° |
| 2026-05-04 09:12 | 44.83382 | -2.53300 | 37996 ft | 480 kts | 7° |
| 2026-05-04 09:14 | 45.09742 | -2.47282 | 37998 ft | 480 kts | 8° |
| 2026-05-04 09:14 | 45.16333 | -2.45769 | 37999 ft | 480 kts | 8° |
| 2026-05-04 09:15 | 45.22923 | -2.44252 | 37999 ft | 479 kts | 8° |
| 2026-05-04 09:15 | 45.29506 | -2.42733 | 37998 ft | 479 kts | 8° |
| 2026-05-04 09:17 | 45.55938 | -2.36598 | 37988 ft | 480 kts | 8° |
| 2026-05-04 09:18 | 45.62512 | -2.35062 | 38000 ft | 478 kts | 8° |
| 2026-05-04 09:18 | 45.69076 | -2.33525 | 37994 ft | 478 kts | 8° |
| 2026-05-04 09:19 | 45.75646 | -2.31984 | 37993 ft | 478 kts | 8° |
| 2026-05-04 09:19 | 45.82211 | -2.30440 | 37995 ft | 478 kts | 8° |
| 2026-05-04 09:20 | 45.88782 | -2.28891 | 37986 ft | 478 kts | 8° |
| 2026-05-04 09:20 | 45.95338 | -2.27342 | 37987 ft | 478 kts | 8° |
| 2026-05-04 09:21 | 46.01861 | -2.25798 | 37996 ft | 478 kts | 8° |
| 2026-05-04 09:21 | 46.08423 | -2.24233 | 37987 ft | 478 kts | 9° |
| 2026-05-04 09:22 | 46.14994 | -2.22627 | 37990 ft | 478 kts | 9° |
| 2026-05-04 09:22 | 46.21554 | -2.21021 | 37990 ft | 478 kts | 9° |
| 2026-05-04 09:23 | 46.28117 | -2.19415 | 37996 ft | 478 kts | 9° |
| 2026-05-04 09:23 | 46.34642 | -2.17815 | 37989 ft | 478 kts | 9° |
| 2026-05-04 09:25 | 46.60882 | -2.11340 | 37992 ft | 478 kts | 9° |
| 2026-05-04 09:26 | 46.67408 | -2.09719 | 37983 ft | 478 kts | 9° |
| 2026-05-04 09:26 | 46.73977 | -2.08084 | 37985 ft | 478 kts | 9° |
| 2026-05-04 09:27 | 46.80504 | -2.06456 | 37984 ft | 478 kts | 9° |
| 2026-05-04 09:27 | 46.87071 | -2.04813 | 37986 ft | 478 kts | 9° |
| 2026-05-04 09:28 | 46.93637 | -2.03167 | 37986 ft | 478 kts | 9° |
| 2026-05-04 09:28 | 47.00205 | -2.01516 | 37990 ft | 479 kts | 9° |
| 2026-05-04 09:29 | 47.06727 | -1.99893 | 37992 ft | 478 kts | 8° |
| 2026-05-04 09:29 | 47.13294 | -1.98270 | 38002 ft | 478 kts | 8° |
| 2026-05-04 09:30 | 47.19857 | -1.96642 | 37992 ft | 479 kts | 8° |
| 2026-05-04 09:30 | 47.26434 | -1.95004 | 38000 ft | 479 kts | 8° |
| 2026-05-04 09:31 | 47.32961 | -1.93133 | 38005 ft | 476 kts | 15° |
| 2026-05-04 09:31 | 47.39186 | -1.89758 | 37998 ft | 478 kts | 25° |
| 2026-05-04 09:32 | 47.45175 | -1.85456 | 37986 ft | 478 kts | 25° |
| 2026-05-04 09:34 | 47.69003 | -1.68278 | 37994 ft | 476 kts | 26° |
| 2026-05-04 09:34 | 47.74954 | -1.63946 | 37995 ft | 476 kts | 26° |
| 2026-05-04 09:35 | 47.80899 | -1.59609 | 37997 ft | 475 kts | 26° |
| 2026-05-04 09:35 | 47.86843 | -1.55260 | 38000 ft | 475 kts | 26° |
| 2026-05-04 09:37 | 48.08345 | -1.44035 | 37983 ft | 471 kts | 358° |
| 2026-05-04 09:37 | 48.11615 | -1.44251 | 37984 ft | 470 kts | 356° |
| 2026-05-04 09:38 | 48.18149 | -1.44706 | 37981 ft | 470 kts | 356° |
| 2026-05-04 09:38 | 48.24700 | -1.45161 | 37994 ft | 470 kts | 356° |
| 2026-05-04 09:39 | 48.31219 | -1.45629 | 37991 ft | 470 kts | 356° |
| 2026-05-04 09:39 | 48.37759 | -1.46101 | 37981 ft | 470 kts | 356° |
| 2026-05-04 09:40 | 48.44299 | -1.46576 | 37987 ft | 470 kts | 356° |
| 2026-05-04 09:40 | 48.50785 | -1.47047 | 37988 ft | 470 kts | 356° |
| 2026-05-04 09:42 | 48.76954 | -1.48961 | 38000 ft | 470 kts | 356° |
| 2026-05-04 09:43 | 48.83475 | -1.49441 | 37993 ft | 469 kts | 356° |
| 2026-05-04 09:43 | 48.90008 | -1.49813 | 37996 ft | 469 kts | 1° |
| 2026-05-04 09:44 | 48.96527 | -1.49108 | 37993 ft | 469 kts | 4° |
| 2026-05-04 09:46 | 49.22567 | -1.46061 | 38006 ft | 470 kts | 4° |
| 2026-05-04 09:46 | 49.29086 | -1.45282 | 38010 ft | 470 kts | 4° |
| 2026-05-04 09:47 | 49.35617 | -1.44501 | 38013 ft | 470 kts | 4° |
| 2026-05-04 09:49 | 49.61636 | -1.41395 | 38032 ft | 468 kts | 3° |
| 2026-05-04 09:51 | 49.84307 | -1.39448 | 38020 ft | 465 kts | 3° |
| 2026-05-04 09:51 | 49.90769 | -1.38873 | 38015 ft | 464 kts | 3° |
| 2026-05-04 09:52 | 49.97183 | -1.38300 | 38010 ft | 464 kts | 3° |
| 2026-05-04 09:52 | 50.03591 | -1.37137 | 38009 ft | 463 kts | 9° |
| 2026-05-04 09:53 | 50.09960 | -1.35556 | 38007 ft | 463 kts | 8° |
| 2026-05-04 09:53 | 50.16331 | -1.33990 | 38008 ft | 463 kts | 9° |
| 2026-05-04 09:54 | 50.22654 | -1.32417 | 38005 ft | 463 kts | 9° |
| 2026-05-04 09:54 | 50.29024 | -1.30822 | 38004 ft | 463 kts | 9° |
| 2026-05-04 09:55 | 50.35417 | -1.29218 | 38364 ft | 465 kts | 9° |
| 2026-05-04 09:55 | 50.38602 | -1.28417 | 38665 ft | 463 kts | 9° |
| 2026-05-04 09:55 | 50.41790 | -1.27614 | 38889 ft | 462 kts | 9° |
| 2026-05-04 09:55 | 50.44967 | -1.26763 | 39007 ft | 462 kts | 12° |
| 2026-05-04 09:56 | 50.48076 | -1.25484 | 39015 ft | 461 kts | 18° |
| 2026-05-04 09:56 | 50.53014 | -1.22353 | 39014 ft | 460 kts | 27° |
| 2026-05-04 09:57 | 50.59400 | -1.16344 | 39010 ft | 460 kts | 32° |
| 2026-05-04 09:57 | 50.63949 | -1.11866 | 39009 ft | 460 kts | 32° |
| 2026-05-04 09:58 | 50.69335 | -1.06525 | 39010 ft | 460 kts | 33° |
| 2026-05-04 09:58 | 50.74751 | -1.01115 | 39013 ft | 460 kts | 33° |
| 2026-05-04 10:00 | 50.95010 | -0.76466 | 39015 ft | 460 kts | 41° |
| 2026-05-04 10:02 | 51.13394 | -0.56397 | 39023 ft | 462 kts | 26° |
| 2026-05-04 10:04 | 51.33975 | -0.42085 | 39041 ft | 461 kts | 26° |
| 2026-05-04 10:04 | 51.39730 | -0.37696 | 39048 ft | 461 kts | 25° |
| 2026-05-04 10:05 | 51.45544 | -0.33288 | 39047 ft | 462 kts | 26° |
| 2026-05-04 10:05 | 51.51343 | -0.28863 | 39022 ft | 462 kts | 26° |
| 2026-05-04 10:06 | 51.57142 | -0.24421 | 39021 ft | 462 kts | 26° |
| 2026-05-04 10:06 | 51.62954 | -0.19954 | 39076 ft | 462 kts | 26° |
| 2026-05-04 10:08 | 51.78211 | -0.01970 | 39049 ft | 459 kts | 57° |
| 2026-05-04 10:08 | 51.79922 | 0.02380 | 39032 ft | 459 kts | 59° |
| 2026-05-04 10:08 | 51.83203 | 0.11246 | 39039 ft | 460 kts | 60° |
| 2026-05-04 10:09 | 51.86474 | 0.20132 | 39042 ft | 460 kts | 60° |
| 2026-05-04 10:09 | 51.89762 | 0.29034 | 39043 ft | 461 kts | 60° |
| 2026-05-04 10:10 | 51.93033 | 0.37904 | 39045 ft | 462 kts | 60° |
| 2026-05-04 10:10 | 51.96321 | 0.46852 | 39040 ft | 462 kts | 60° |
| 2026-05-04 10:11 | 51.99733 | 0.55699 | 39029 ft | 463 kts | 52° |
| 2026-05-04 10:11 | 52.04450 | 0.62791 | 39019 ft | 464 kts | 33° |
| 2026-05-04 10:12 | 52.10317 | 0.67079 | 39016 ft | 464 kts | 14° |
| 2026-05-04 10:12 | 52.16535 | 0.69881 | 39021 ft | 464 kts | 15° |
| 2026-05-04 10:13 | 52.22759 | 0.72730 | 39027 ft | 465 kts | 15° |
| 2026-05-04 10:13 | 52.29000 | 0.75591 | 39041 ft | 465 kts | 15° |
| 2026-05-04 10:14 | 52.35194 | 0.78435 | 39044 ft | 466 kts | 15° |
| 2026-05-04 10:16 | 52.60352 | 0.88850 | 39037 ft | 466 kts | 13° |
| 2026-05-04 10:16 | 52.66629 | 0.91474 | 39036 ft | 466 kts | 13° |
| 2026-05-04 10:17 | 52.72917 | 0.94109 | 39051 ft | 466 kts | 13° |
| 2026-05-04 10:19 | 52.97982 | 1.04693 | 39042 ft | 465 kts | 13° |
| 2026-05-04 10:19 | 53.04246 | 1.07358 | 39041 ft | 465 kts | 13° |
| 2026-05-04 10:20 | 53.10518 | 1.10034 | 39045 ft | 464 kts | 13° |
| 2026-05-04 10:20 | 53.16741 | 1.12697 | 39042 ft | 465 kts | 13° |
| 2026-05-04 10:21 | 53.23009 | 1.15388 | 39046 ft | 465 kts | 13° |
| 2026-05-04 10:21 | 53.29272 | 1.18084 | 39047 ft | 465 kts | 13° |
| 2026-05-04 10:22 | 53.38687 | 1.22152 | 39052 ft | 465 kts | 13° |
| 2026-05-04 10:23 | 53.44929 | 1.24864 | 39056 ft | 466 kts | 13° |
| 2026-05-04 10:25 | 53.70050 | 1.35861 | 39067 ft | 466 kts | 13° |
| 2026-05-04 10:25 | 53.76291 | 1.38615 | 39061 ft | 464 kts | 13° |
| 2026-05-04 10:26 | 53.82491 | 1.41537 | 39060 ft | 462 kts | 15° |
| 2026-05-04 10:26 | 53.88672 | 1.44565 | 39060 ft | 463 kts | 15° |
| 2026-05-04 10:27 | 53.94869 | 1.47575 | 39060 ft | 462 kts | 14° |
| 2026-05-04 10:27 | 54.01067 | 1.50579 | 39062 ft | 463 kts | 14° |
| 2026-05-04 10:28 | 54.07219 | 1.53571 | 39070 ft | 463 kts | 14° |
| 2026-05-04 10:28 | 54.13438 | 1.56607 | 39078 ft | 464 kts | 14° |
| 2026-05-04 10:29 | 54.19651 | 1.59650 | 39067 ft | 463 kts | 14° |
| 2026-05-04 10:29 | 54.25837 | 1.62690 | 39065 ft | 462 kts | 14° |
| 2026-05-04 10:30 | 54.32031 | 1.65743 | 39067 ft | 463 kts | 15° |
| 2026-05-04 10:30 | 54.38220 | 1.68803 | 39068 ft | 463 kts | 15° |
| 2026-05-04 10:31 | 54.44384 | 1.71860 | 39070 ft | 463 kts | 15° |
| 2026-05-04 10:32 | 54.66044 | 1.82679 | 39068 ft | 464 kts | 15° |
| 2026-05-04 10:33 | 54.72251 | 1.85802 | 39072 ft | 464 kts | 15° |
| 2026-05-04 10:33 | 54.78458 | 1.88934 | 39072 ft | 464 kts | 15° |
| 2026-05-04 10:34 | 54.84663 | 1.92076 | 39067 ft | 464 kts | 15° |
| 2026-05-04 10:34 | 54.90867 | 1.95227 | 39067 ft | 464 kts | 15° |
| 2026-05-04 10:35 | 54.97040 | 1.98373 | 39068 ft | 465 kts | 15° |
| 2026-05-04 10:35 | 55.03242 | 2.01544 | 39066 ft | 465 kts | 15° |
| 2026-05-04 10:36 | 55.09448 | 2.04726 | 39065 ft | 465 kts | 15° |
| 2026-05-04 10:36 | 55.15650 | 2.07918 | 39063 ft | 465 kts | 15° |
| 2026-05-04 10:37 | 55.21870 | 2.11129 | 39064 ft | 465 kts | 15° |
| 2026-05-04 10:37 | 55.28037 | 2.14322 | 39064 ft | 465 kts | 15° |
| 2026-05-04 10:39 | 55.49773 | 2.25662 | 39056 ft | 465 kts | 15° |
| 2026-05-04 10:40 | 55.55983 | 2.28926 | 39058 ft | 465 kts | 15° |
| 2026-05-04 10:40 | 55.62188 | 2.32198 | 39057 ft | 465 kts | 15° |
| 2026-05-04 10:41 | 55.68403 | 2.35486 | 39044 ft | 465 kts | 15° |
| 2026-05-04 10:41 | 55.74606 | 2.38779 | 39048 ft | 465 kts | 15° |
| 2026-05-04 10:42 | 55.80815 | 2.42086 | 39057 ft | 466 kts | 15° |
| 2026-05-04 10:42 | 55.87023 | 2.45403 | 39041 ft | 466 kts | 15° |
| 2026-05-04 10:43 | 55.93196 | 2.48713 | 39046 ft | 466 kts | 15° |
| 2026-05-04 10:45 | 56.18023 | 2.62136 | 39034 ft | 467 kts | 15° |
| 2026-05-04 10:45 | 56.23243 | 2.64981 | 39031 ft | 468 kts | 15° |
| 2026-05-04 10:46 | 56.29437 | 2.68369 | 39025 ft | 468 kts | 15° |
| 2026-05-04 10:46 | 56.35673 | 2.71790 | 39020 ft | 469 kts | 15° |
| 2026-05-04 10:47 | 56.41930 | 2.75235 | 39017 ft | 469 kts | 15° |
| 2026-05-04 10:47 | 56.48183 | 2.78689 | 39021 ft | 470 kts | 15° |
| 2026-05-04 10:49 | 56.73200 | 2.92631 | 39012 ft | 472 kts | 15° |
| 2026-05-04 10:50 | 56.79476 | 2.96159 | 39015 ft | 472 kts | 15° |
| 2026-05-04 10:52 | 57.04559 | 3.10383 | 39010 ft | 473 kts | 15° |
| 2026-05-04 10:52 | 57.10845 | 3.13979 | 39009 ft | 473 kts | 15° |
| 2026-05-04 10:54 | 57.35942 | 3.28466 | 38992 ft | 473 kts | 14° |
| 2026-05-04 10:56 | 57.61046 | 3.43166 | 38992 ft | 473 kts | 14° |
| 2026-05-04 10:57 | 57.67325 | 3.46876 | 38988 ft | 473 kts | 14° |
| 2026-05-04 10:57 | 57.73593 | 3.50594 | 38983 ft | 473 kts | 13° |
| 2026-05-04 10:58 | 57.79860 | 3.54321 | 38983 ft | 472 kts | 14° |
| 2026-05-04 10:58 | 57.86122 | 3.58061 | 38975 ft | 472 kts | 14° |
| 2026-05-04 10:59 | 57.92277 | 3.62237 | 38973 ft | 474 kts | 21° |
| 2026-05-04 10:59 | 57.98293 | 3.67557 | 38973 ft | 475 kts | 21° |
| 2026-05-04 11:00 | 58.04291 | 3.72771 | 38961 ft | 474 kts | 22° |
| 2026-05-04 11:02 | 58.28147 | 3.93948 | 38939 ft | 475 kts | 22° |
| 2026-05-04 11:05 | 58.73131 | 4.34820 | 38927 ft | 477 kts | 22° |
| 2026-05-04 11:06 | 58.79124 | 4.40354 | 38919 ft | 477 kts | 22° |
| 2026-05-04 11:06 | 58.85098 | 4.45893 | 38915 ft | 476 kts | 22° |
| 2026-05-04 11:08 | 59.06033 | 4.65465 | 35672 ft | 492 kts | 22° |
| 2026-05-04 11:10 | 59.27848 | 4.86158 | 29066 ft | 498 kts | 22° |
| 2026-05-04 11:12 | 59.49053 | 4.95331 | 24840 ft | 424 kts | 348° |
| 2026-05-04 11:12 | 59.51979 | 4.94861 | 24263 ft | 419 kts | 348° |
| 2026-05-04 11:12 | 59.54868 | 4.94394 | 23690 ft | 414 kts | 348° |
| 2026-05-04 11:12 | 59.57730 | 4.93927 | 23070 ft | 410 kts | 348° |
| 2026-05-04 11:13 | 59.60550 | 4.93466 | 22493 ft | 403 kts | 348° |
| 2026-05-04 11:13 | 59.63332 | 4.93010 | 21932 ft | 397 kts | 348° |
| 2026-05-04 11:13 | 59.66066 | 4.92558 | 21380 ft | 391 kts | 348° |
| 2026-05-04 11:13 | 59.68765 | 4.92112 | 20825 ft | 386 kts | 348° |
| 2026-05-04 11:14 | 59.71430 | 4.91668 | 20271 ft | 382 kts | 348° |
| 2026-05-04 11:14 | 59.74066 | 4.91228 | 19739 ft | 377 kts | 348° |
| 2026-05-04 11:14 | 59.76641 | 4.90799 | 19213 ft | 373 kts | 348° |
| 2026-05-04 11:16 | 59.93877 | 4.86049 | 15572 ft | 342 kts | 346° |
| 2026-05-04 11:16 | 59.96225 | 4.85376 | 15087 ft | 340 kts | 346° |
| 2026-05-04 11:16 | 59.98553 | 4.84708 | 14591 ft | 337 kts | 346° |
| 2026-05-04 11:17 | 60.00862 | 4.84046 | 14110 ft | 334 kts | 346° |
| 2026-05-04 11:17 | 60.03153 | 4.83387 | 13621 ft | 331 kts | 346° |
| 2026-05-04 11:19 | 60.18506 | 4.78948 | 10355 ft | 311 kts | 347° |
| 2026-05-04 11:19 | 60.20621 | 4.78339 | 10144 ft | 300 kts | 347° |
| 2026-05-04 11:19 | 60.22645 | 4.77760 | 9969 ft | 289 kts | 347° |
| 2026-05-04 11:19 | 60.24595 | 4.77196 | 9660 ft | 283 kts | 347° |
| 2026-05-04 11:20 | 60.26545 | 4.76628 | 9513 ft | 281 kts | 347° |
| 2026-05-04 11:20 | 60.28466 | 4.76060 | 9382 ft | 283 kts | 347° |
| 2026-05-04 11:20 | 60.30411 | 4.75487 | 9126 ft | 282 kts | 347° |
| 2026-05-04 11:20 | 60.32346 | 4.74919 | 8767 ft | 280 kts | 347° |
| 2026-05-04 11:22 | 60.44449 | 4.69609 | 7480 ft | 238 kts | 336° |
| 2026-05-04 11:22 | 60.46055 | 4.68744 | 7396 ft | 240 kts | 347° |
| 2026-05-04 11:23 | 60.47735 | 4.68582 | 7320 ft | 244 kts | 357° |
| 2026-05-04 11:23 | 60.49410 | 4.68634 | 7173 ft | 243 kts | 356° |
| 2026-05-04 11:24 | 60.58786 | 4.75691 | 6151 ft | 247 kts | 38° |
| 2026-05-04 11:25 | 60.60088 | 4.77966 | 5962 ft | 246 kts | 38° |
| 2026-05-04 11:25 | 60.61322 | 4.80366 | 5789 ft | 246 kts | 49° |
| 2026-05-04 11:25 | 60.62250 | 4.83284 | 5619 ft | 247 kts | 61° |
| 2026-05-04 11:26 | 60.63255 | 4.89830 | 5262 ft | 246 kts | 99° |
| 2026-05-04 11:27 | 60.53329 | 4.98953 | 4111 ft | 235 kts | 166° |
| 2026-05-04 11:28 | 60.51761 | 4.99881 | 4010 ft | 231 kts | 165° |
| 2026-05-04 11:28 | 60.50274 | 5.00784 | 4009 ft | 215 kts | 165° |
| 2026-05-04 11:28 | 60.48997 | 5.02161 | 4024 ft | 214 kts | 136° |
| 2026-05-04 11:28 | 60.48236 | 5.04838 | 3958 ft | 224 kts | 107° |
| 2026-05-04 11:29 | 60.47904 | 5.07870 | 3871 ft | 216 kts | 99° |
| 2026-05-04 11:29 | 60.47689 | 5.10862 | 3511 ft | 213 kts | 97° |
| 2026-05-04 11:29 | 60.47444 | 5.13805 | 3147 ft | 210 kts | 110° |
| 2026-05-04 11:29 | 60.46603 | 5.16069 | 3016 ft | 205 kts | 150° |
| 2026-05-04 11:31 | 60.36712 | 5.19319 | 1584 ft | 202 kts | 171° |
| 2026-05-04 11:33 | 60.29642 | 5.21705 | 168 ft | 101 kts | 170° |
| 2026-05-04 11:33 | 60.29272 | 5.21825 | 164 ft | 61 kts | 171° |
| 2026-05-04 11:33 | 60.28991 | 5.21933 | 162 ft | 22 kts | 170° |
| 2026-05-04 11:34 | 60.28889 | 5.22069 | 160 ft | 0 kts | 94° |
| 2026-05-04 11:34 | 60.28891 | 5.22072 | 160 ft | 1 kts | 70° |
| 2026-05-04 11:34 | 60.28909 | 5.22106 | 161 ft | 5 kts | 50° |
| 2026-05-04 11:34 | 60.28923 | 5.22147 | 161 ft | 6 kts | 57° |
| 2026-05-04 11:35 | 60.28932 | 5.22250 | 161 ft | 11 kts | 82° |
| 2026-05-04 11:35 | 60.28953 | 5.22398 | 162 ft | 11 kts | 89° |
| 2026-05-04 11:35 | 60.28944 | 5.22489 | 162 ft | 0 kts | 110° |